Time;durP1;ratioP1;P1;durP2;ratioP2;P2;SDS_P1;SDS_P2;PMS_P1;PMS_P2;Temp;Humidity;BMP_temperature;BMP_pressure;BME280_temperature;BME280_humidity;BME280_pressure;Samples;Min_cycle;Max_cycle;Signal;HPM_P1;HPM_P2
2020/12/27 00:00:38;;;;;;;41.70;17.17;;;;;;;2.41;84.35;101412.52;127819;1091;104491;-71
2020/12/27 00:03:08;;;;;;;31.87;14.10;;;;;;;2.36;84.03;101416.43;127736;1091;104574;-71
2020/12/27 00:05:38;;;;;;;46.00;18.87;;;;;;;2.33;84.47;101419.66;127747;1091;104468;-71
2020/12/27 00:08:07;;;;;;;38.50;17.77;;;;;;;2.33;83.91;101416.17;127744;1091;104407;-71
2020/12/27 00:10:36;;;;;;;48.73;19.57;;;;;;;2.33;84.85;101419.66;127701;1091;104448;-72
2020/12/27 00:13:05;;;;;;;42.63;19.07;;;;;;;2.32;84.77;101416.94;127743;1092;104436;-72
2020/12/27 00:15:34;;;;;;;57.40;19.40;;;;;;;2.31;83.64;101422.92;127762;1091;104561;-72
2020/12/27 00:18:03;;;;;;;46.27;18.07;;;;;;;2.28;84.64;101423.56;127764;1092;104416;-72
2020/12/27 00:20:33;;;;;;;45.83;18.37;;;;;;;2.28;84.32;101425.25;127777;1093;104411;-73
2020/12/27 00:23:01;;;;;;;51.37;19.63;;;;;;;2.29;84.76;101420.20;127836;1092;104474;-70
2020/12/27 00:25:32;;;;;;;46.90;20.23;;;;;;;2.31;84.80;101420.33;127823;1092;104485;-69
2020/12/27 00:28:01;;;;;;;48.57;17.37;;;;;;;2.30;84.50;101411.63;127796;1092;104483;-70
2020/12/27 00:30:30;;;;;;;38.57;15.53;;;;;;;2.29;84.60;101421.86;127782;1091;104532;-70
2020/12/27 00:33:00;;;;;;;49.67;19.47;;;;;;;2.25;84.33;101415.53;127807;1091;104430;-69
2020/12/27 00:35:29;;;;;;;50.23;19.03;;;;;;;2.23;84.43;101429.12;127821;1091;104458;-69
2020/12/27 00:37:57;;;;;;;50.87;17.17;;;;;;;2.18;84.51;101420.06;127792;1092;104437;-71
2020/12/27 00:40:27;;;;;;;47.63;19.17;;;;;;;2.12;84.77;101423.03;127785;1091;104407;-71
2020/12/27 00:42:56;;;;;;;41.53;18.33;;;;;;;2.10;84.07;101419.42;127751;1092;104481;-73
2020/12/27 00:45:25;;;;;;;61.60;18.70;;;;;;;2.10;84.80;101422.01;127779;1092;104405;-70
2020/12/27 00:47:54;;;;;;;43.43;18.50;;;;;;;2.14;84.32;101424.98;127754;1091;104413;-72
2020/12/27 00:50:24;;;;;;;53.33;21.90;;;;;;;2.14;84.75;101432.76;127782;1092;104449;-71
2020/12/27 00:52:54;;;;;;;56.87;21.77;;;;;;;2.18;84.47;101433.02;127822;1092;104849;-70
2020/12/27 00:55:23;;;;;;;55.93;18.27;;;;;;;2.18;84.64;101433.91;127811;1093;104407;-71
2020/12/27 00:57:52;;;;;;;50.63;21.80;;;;;;;2.20;84.84;101436.63;127786;1092;104526;-71
2020/12/27 01:00:21;;;;;;;50.73;20.33;;;;;;;2.20;84.79;101428.86;127813;1091;104539;-71
2020/12/27 01:02:51;;;;;;;49.37;20.87;;;;;;;2.21;84.15;101433.27;127800;1091;104452;-70
2020/12/27 01:05:35;;;;;;;56.80;18.87;;;;;;;2.24;84.61;101428.35;127803;1092;104624;-72
2020/12/27 01:08:05;;;;;;;66.83;20.77;;;;;;;2.21;84.48;101433.27;127726;1092;104433;-72
2020/12/27 01:10:34;;;;;;;60.23;23.13;;;;;;;2.20;84.35;101429.79;127801;1092;104410;-72
2020/12/27 01:13:03;;;;;;;61.23;22.57;;;;;;;2.20;84.19;101434.04;127845;1092;104404;-71
2020/12/27 01:15:33;;;;;;;64.10;20.77;;;;;;;2.23;84.44;101440.41;127804;1091;104417;-71
2020/12/27 01:18:16;;;;;;;48.87;17.57;;;;;;;2.24;84.76;101429.25;127790;1091;104507;-71
2020/12/27 01:20:51;;;;;;;51.53;18.70;;;;;;;2.28;84.68;101433.92;127772;1091;104414;-70
2020/12/27 01:23:21;;;;;;;62.33;22.70;;;;;;;2.30;84.71;101428.87;127765;1091;104410;-72
2020/12/27 01:25:50;;;;;;;55.63;22.13;;;;;;;2.31;84.81;101435.87;127745;1091;104474;-71
2020/12/27 01:28:19;;;;;;;51.63;19.77;;;;;;;2.30;84.80;101428.87;127789;1092;104410;-71
2020/12/27 01:30:51;;;;;;;55.43;21.67;;;;;;;2.29;84.11;101432.22;127804;1091;104522;-72
2020/12/27 01:33:25;;;;;;;60.43;21.30;;;;;;;2.25;84.67;101431.07;127743;1092;104429;-72
2020/12/27 01:35:59;;;;;;;56.55;21.37;;;;;;;2.25;84.79;101437.95;127824;1091;104414;-71
2020/12/27 01:38:28;;;;;;;51.80;19.70;;;;;;;2.26;84.25;101440.66;127797;1091;104456;-71
2020/12/27 01:41:07;;;;;;;47.73;19.40;;;;;;;2.24;84.64;101442.20;127817;1092;104417;-71
2020/12/27 01:43:40;;;;;;;51.47;18.90;;;;;;;2.21;84.74;101447.12;127775;1091;104565;-72
2020/12/27 01:46:09;;;;;;;68.23;24.77;;;;;;;2.18;84.54;101446.86;127776;1091;104465;-71
2020/12/27 01:48:38;;;;;;;47.00;20.50;;;;;;;2.19;84.72;101445.20;127767;1091;104416;-73
2020/12/27 01:51:08;;;;;;;54.17;20.97;;;;;;;2.16;84.64;101446.73;127758;1092;104943;-72
2020/12/27 01:53:44;;;;;;;50.60;20.83;;;;;;;2.13;84.30;101438.70;127802;1092;104529;-72
2020/12/27 01:56:26;;;;;;;49.30;19.60;;;;;;;2.11;84.70;101440.27;127763;1091;104414;-71
2020/12/27 01:59:02;;;;;;;55.30;20.77;;;;;;;2.09;84.15;101451.29;127775;1092;104404;-70
2020/12/27 02:01:33;;;;;;;45.50;18.63;;;;;;;2.05;84.27;101446.62;127794;1091;104427;-70
2020/12/27 02:04:22;;;;;;;58.93;22.27;;;;;;;2.00;83.89;101451.41;127783;1092;104474;-73
2020/12/27 02:06:52;;;;;;;54.17;21.57;;;;;;;2.01;84.31;101458.41;127781;1092;104471;-72
2020/12/27 02:09:31;;;;;;;61.67;23.00;;;;;;;2.03;84.57;101459.43;127782;1092;104551;-72
2020/12/27 02:12:06;;;;;;;60.70;20.97;;;;;;;2.07;84.51;101445.98;127787;1092;104569;-72
2020/12/27 02:14:38;;;;;;;58.17;22.40;;;;;;;2.06;84.11;101438.08;127770;1091;104405;-72
2020/12/27 02:17:08;;;;;;;51.47;21.30;;;;;;;2.06;84.28;101432.91;127801;1092;104558;-72
2020/12/27 02:19:55;;;;;;;59.30;20.10;;;;;;;2.07;85.34;101432.11;127832;1091;104482;-72
2020/12/27 02:22:43;;;;;;;61.90;21.43;;;;;;;2.07;84.40;101432.11;127798;1091;104538;-72
2020/12/27 02:25:29;;;;;;;52.03;20.70;;;;;;;2.06;84.79;101438.98;127761;1091;104523;-72
2020/12/27 02:28:09;;;;;;;54.53;17.27;;;;;;;2.03;84.60;101449.08;127782;1092;104605;-72
2020/12/27 02:30:39;;;;;;;59.60;21.90;;;;;;;2.01;84.53;101454.89;127798;1092;104451;-71
2020/12/27 02:33:08;;;;;;;59.03;21.50;;;;;;;1.97;84.07;101454.63;127816;1092;104423;-72
2020/12/27 02:35:37;;;;;;;75.87;26.17;;;;;;;1.95;84.71;101456.19;127799;1092;104417;-71
2020/12/27 02:38:07;;;;;;;58.80;24.97;;;;;;;1.93;84.99;101455.16;127762;1092;104538;-72
2020/12/27 02:40:41;;;;;;;64.80;23.55;;;;;;;1.93;84.46;101462.00;127771;1092;104430;-71
2020/12/27 02:43:17;;;;;;;62.07;22.97;;;;;;;1.90;84.54;101457.48;127716;1092;104448;-72
2020/12/27 02:45:49;;;;;;;75.17;28.60;;;;;;;1.88;84.52;101464.19;127832;1091;104481;-72
2020/12/27 02:48:35;;;;;;;57.23;24.43;;;;;;;1.85;84.49;101457.85;127778;1092;104407;-72
2020/12/27 02:51:08;;;;;;;50.67;22.77;;;;;;;1.81;84.54;101446.34;127755;1091;104516;-72
2020/12/27 02:53:39;;;;;;;67.87;24.47;;;;;;;1.77;84.23;101441.67;127817;1091;104441;-70
2020/12/27 02:56:08;;;;;;;68.20;29.10;;;;;;;1.76;85.04;101445.02;127757;1091;104407;-72
2020/12/27 02:58:37;;;;;;;56.50;24.63;;;;;;;1.78;84.49;101449.56;127790;1091;104414;-72
2020/12/27 03:01:06;;;;;;;67.43;25.83;;;;;;;1.81;84.83;101461.87;127807;1091;104414;-72
2020/12/27 03:03:55;;;;;;;70.20;27.87;;;;;;;1.85;84.74;101466.52;127780;1092;104414;-72
2020/12/27 03:06:29;;;;;;;58.28;24.12;;;;;;;1.85;84.56;101463.03;127810;1091;104417;-72
2020/12/27 03:09:02;;;;;;;65.00;25.10;;;;;;;1.86;84.56;101467.45;127798;1092;104445;-72
2020/12/27 03:11:42;;;;;;;61.10;25.25;;;;;;;1.85;84.55;101461.34;127820;1091;104420;-72
2020/12/27 03:14:13;;;;;;;62.33;25.23;;;;;;;1.87;84.21;101458.88;127829;1091;104405;-72
2020/12/27 03:17:02;;;;;;;66.47;28.37;;;;;;;1.89;85.01;101471.19;127760;1091;105054;-73
2020/12/27 03:19:41;;;;;;;59.77;24.80;;;;;;;1.94;84.65;101466.41;127785;1092;104417;-72
2020/12/27 03:22:25;;;;;;;70.97;27.70;;;;;;;2.02;84.93;101467.06;127799;1092;104529;-72
2020/12/27 03:25:00;;;;;;;62.77;24.80;;;;;;;2.01;84.96;101466.17;127798;1092;104526;-72
2020/12/27 03:27:30;;;;;;;62.63;25.07;;;;;;;1.96;84.60;101465.78;127782;1092;104481;-72
2020/12/27 03:29:59;;;;;;;63.73;25.57;;;;;;;1.93;84.38;101473.28;127748;1091;104419;-72
2020/12/27 03:32:35;;;;;;;68.97;24.80;;;;;;;1.91;84.48;101473.91;127817;1091;104535;-72
2020/12/27 03:35:05;;;;;;;59.95;25.20;;;;;;;1.88;84.50;101471.95;127779;1091;104433;-71
2020/12/27 03:37:36;;;;;;;59.93;26.03;;;;;;;1.86;84.67;101472.62;127807;1091;104413;-71
2020/12/27 03:40:15;;;;;;;56.07;24.47;;;;;;;1.84;84.51;101464.72;127832;1092;104413;-71
2020/12/27 03:42:55;;;;;;;70.77;25.63;;;;;;;1.84;84.50;101479.32;127755;1092;104408;-71
2020/12/27 03:45:24;;;;;;;56.97;23.87;;;;;;;1.85;84.69;101481.15;127796;1091;104417;-71
2020/12/27 03:48:15;;;;;;;50.63;23.83;;;;;;;1.84;84.38;101467.31;127786;1093;104407;-71
2020/12/27 03:51:07;;;;;;;67.50;24.90;;;;;;;1.84;84.57;101474.14;127778;1092;104487;-71
2020/12/27 03:53:42;;;;;;;57.57;24.37;;;;;;;1.82;84.13;101474.02;127749;1091;104542;-71
2020/12/27 03:56:33;;;;;;;77.07;26.50;;;;;;;1.83;84.18;101475.84;127786;1091;104407;-73
2020/12/27 03:59:14;;;;;;;61.30;24.47;;;;;;;1.85;84.70;101471.69;127818;1091;104544;-72
2020/12/27 04:01:49;;;;;;;66.27;27.40;;;;;;;1.84;84.34;101475.08;127807;1092;104436;-73
2020/12/27 04:04:19;;;;;;;60.27;26.57;;;;;;;1.82;84.74;101478.30;127798;1091;104407;-73
2020/12/27 04:06:48;;;;;;;57.43;23.53;;;;;;;1.77;84.74;101483.97;127785;1092;104413;-72
2020/12/27 04:09:27;;;;;;;56.87;24.47;;;;;;;1.72;84.77;101481.78;127748;1091;104551;-71
2020/12/27 04:11:56;;;;;;;63.43;23.60;;;;;;;1.68;84.49;101483.17;127747;1091;104479;-71
2020/12/27 04:14:25;;;;;;;74.03;26.37;;;;;;;1.66;84.65;101495.08;127781;1091;104414;-72
2020/12/27 04:16:54;;;;;;;62.40;25.53;;;;;;;1.61;84.52;101492.09;127817;1092;104417;-72
2020/12/27 04:19:24;;;;;;;52.30;24.33;;;;;;;1.61;84.62;101497.27;127824;1091;104558;-72
2020/12/27 04:22:06;;;;;;;58.57;26.13;;;;;;;1.57;85.12;101494.27;127767;1091;104413;-74
2020/12/27 04:24:45;;;;;;;71.47;24.50;;;;;;;1.52;84.64;101495.55;127750;1092;104420;-73
2020/12/27 04:27:15;;;;;;;54.50;23.90;;;;;;;1.46;84.96;101500.19;127791;1092;104414;-72
2020/12/27 04:29:47;;;;;;;76.53;27.83;;;;;;;1.42;84.70;101506.78;127784;1092;104404;-72
2020/12/27 04:32:25;;;;;;;57.43;22.17;;;;;;;1.37;84.68;101498.62;127806;1091;104580;-70
2020/12/27 04:35:03;;;;;;;53.27;23.40;;;;;;;1.32;84.33;101509.31;127734;1091;104535;-70
2020/12/27 04:37:35;;;;;;;61.50;24.47;;;;;;;1.29;84.60;101515.11;127667;1091;104429;-71
2020/12/27 04:40:12;;;;;;;61.50;24.53;;;;;;;1.28;84.66;101510.73;127762;1092;104911;-71
2020/12/27 04:42:42;;;;;;;55.77;24.00;;;;;;;1.27;85.06;101510.59;127783;1091;104924;-72
2020/12/27 04:45:15;;;;;;;65.93;26.93;;;;;;;1.26;84.86;101520.00;127827;1092;104624;-72
2020/12/27 04:47:56;;;;;;;58.80;24.67;;;;;;;1.31;85.36;101529.11;127756;1091;104528;-72
2020/12/27 04:50:45;;;;;;;66.80;25.90;;;;;;;1.40;85.70;101524.75;127750;1091;104414;-72
2020/12/27 04:53:15;;;;;;;59.70;23.57;;;;;;;1.48;85.65;101524.50;127796;1091;104405;-70
2020/12/27 04:55:45;;;;;;;61.63;24.77;;;;;;;1.47;85.17;101518.43;127819;1091;104417;-70
2020/12/27 04:58:23;;;;;;;62.53;25.93;;;;;;;1.46;84.96;101520.88;127745;1091;104433;-71
2020/12/27 05:01:08;;;;;;;72.63;27.20;;;;;;;1.41;85.25;101520.47;127790;1092;104453;-71
2020/12/27 05:03:57;;;;;;;64.60;25.47;;;;;;;1.41;84.98;101528.23;127798;1092;104481;-71
2020/12/27 05:06:32;;;;;;;77.00;27.57;;;;;;;1.42;84.91;101525.78;127808;1092;104455;-71
2020/12/27 05:09:02;;;;;;;73.27;30.23;;;;;;;1.44;84.96;101536.27;127796;1092;104423;-71
2020/12/27 05:11:31;;;;;;;76.60;26.50;;;;;;;1.44;85.49;101531.98;127795;1092;104541;-71
2020/12/27 05:14:07;;;;;;;76.07;30.77;;;;;;;1.51;85.47;101537.70;127777;1092;104471;-71
2020/12/27 05:16:40;;;;;;;79.07;30.73;;;;;;;1.54;85.00;101535.39;127779;1091;104401;-71
2020/12/27 05:19:09;;;;;;;68.27;27.40;;;;;;;1.49;85.02;101526.33;127804;1092;104422;-71
2020/12/27 05:21:39;;;;;;;59.53;26.13;;;;;;;1.37;84.57;101523.55;127782;1092;104538;-71
2020/12/27 05:24:32;;;;;;;77.03;30.23;;;;;;;1.28;84.51;101531.41;127772;1091;104436;-72
2020/12/27 05:27:15;;;;;;;76.97;30.60;;;;;;;1.27;84.79;101537.34;127749;1091;104465;-71
2020/12/27 05:29:54;;;;;;;68.87;28.63;;;;;;;1.24;85.00;101531.90;127781;1091;104414;-71
2020/12/27 05:32:35;;;;;;;63.47;26.83;;;;;;;1.19;84.58;101540.94;127789;1092;104407;-71
2020/12/27 05:35:25;;;;;;;65.07;25.83;;;;;;;1.26;85.07;101540.69;127728;1091;104410;-71
2020/12/27 05:38:06;;;;;;;62.37;24.07;;;;;;;1.34;85.62;101551.72;127777;1092;104576;-71
2020/12/27 05:40:55;;;;;;;64.43;27.73;;;;;;;1.36;84.95;101569.20;127766;1091;104410;-71
2020/12/27 05:43:39;;;;;;;72.17;30.03;;;;;;;1.40;85.24;101573.89;127782;1093;104430;-71
2020/12/27 05:46:11;;;;;;;65.03;27.37;;;;;;;1.49;85.02;101575.48;127645;1091;104475;-72
2020/12/27 05:48:40;;;;;;;63.90;26.43;;;;;;;1.51;85.60;101586.86;127654;1092;104554;-72
2020/12/27 05:51:15;;;;;;;65.93;27.47;;;;;;;1.53;85.10;101577.58;127791;1091;104407;-71
2020/12/27 05:53:49;;;;;;;73.15;27.20;;;;;;;1.49;85.52;101585.82;127755;1092;104417;-71
2020/12/27 05:56:19;;;;;;;;;;;;;;;1.46;85.11;101581.27;127862;1092;104404;-71
2020/12/27 05:58:55;;;;;;;62.13;29.83;;;;;;;1.39;84.88;101576.34;127761;1092;104432;-72
2020/12/27 06:01:31;;;;;;;97.17;32.47;;;;;;;1.29;84.83;101574.58;127832;1092;104433;-71
2020/12/27 06:04:05;;;;;;;60.90;25.80;;;;;;;1.27;84.54;101572.65;127642;1092;104420;-72
2020/12/27 06:07:05;;;;;;;78.67;28.47;;;;;;;1.28;84.97;101582.20;127653;1091;104432;-73
2020/12/27 06:10:01;;;;;;;70.87;31.53;;;;;;;1.24;84.95;101579.34;127509;1091;104407;-73
2020/12/27 06:13:00;;;;;;;67.60;28.87;;;;;;;1.31;85.54;101577.30;127614;1092;104442;-72
2020/12/27 06:15:32;;;;;;;59.07;25.73;;;;;;;1.40;85.07;101579.06;127731;1091;104462;-73
2020/12/27 06:18:15;;;;;;;;;;;;;;;1.47;84.94;101585.69;127689;1091;104570;-73
2020/12/27 06:21:08;;;;;;;70.30;28.40;;;;;;;1.53;85.42;101591.41;127587;1092;104436;-71
2020/12/27 06:23:45;;;;;;;62.37;28.60;;;;;;;1.56;84.98;101603.72;127759;1091;104407;-71
2020/12/27 06:26:15;;;;;;;80.20;32.47;;;;;;;1.59;85.33;101602.30;127770;1091;104449;-72
2020/12/27 06:28:59;;;;;;;78.93;31.70;;;;;;;1.60;84.51;101601.52;127766;1092;104430;-72
2020/12/27 06:31:36;;;;;;;82.43;33.63;;;;;;;1.65;85.16;101604.51;127813;1092;104471;-71
2020/12/27 06:34:15;;;;;;;81.40;35.10;;;;;;;1.67;84.99;101597.81;127763;1092;104487;-73
2020/12/27 06:36:51;;;;;;;82.37;33.40;;;;;;;1.73;85.06;101613.88;127780;1091;104414;-72
2020/12/27 06:39:34;;;;;;;;;;;;;;;1.77;84.93;101610.78;127824;1092;104410;-72
2020/12/27 06:42:10;;;;;;;104.90;36.67;;;;;;;1.75;84.78;101614.92;127817;1093;104448;-71
2020/12/27 06:44:55;;;;;;;82.00;32.43;;;;;;;1.77;84.59;101612.47;127806;1091;104579;-71
2020/12/27 06:47:50;;;;;;;90.83;37.93;;;;;;;1.72;84.44;101606.88;127645;1091;104491;-72
2020/12/27 06:50:27;;;;;;;73.80;33.27;;;;;;;1.63;84.19;101602.58;127757;1091;104731;-72
2020/12/27 06:53:02;;;;;;;78.50;34.37;;;;;;;1.52;84.47;101602.52;127789;1091;104425;-72
2020/12/27 06:55:50;;;;;;;99.10;35.00;;;;;;;1.51;84.75;101604.96;127802;1092;104407;-71
2020/12/27 06:58:24;;;;;;;83.73;33.50;;;;;;;1.51;84.94;101603.31;127775;1092;104474;-72
2020/12/27 07:01:13;;;;;;;95.23;37.43;;;;;;;1.51;84.20;101607.55;127742;1092;104430;-72
2020/12/27 07:03:43;;;;;;;122.47;57.23;;;;;;;1.57;84.58;101613.27;127787;1091;104432;-71
2020/12/27 07:06:24;;;;;;;101.93;55.07;;;;;;;1.65;84.67;101621.72;127789;1091;104535;-72
2020/12/27 07:08:57;;;;;;;99.03;49.27;;;;;;;1.72;85.06;101617.23;127756;1091;104417;-71
2020/12/27 07:11:31;;;;;;;113.73;53.03;;;;;;;1.88;85.45;101616.00;127813;1091;104501;-72
2020/12/27 07:14:01;;;;;;;114.53;50.97;;;;;;;1.99;85.07;101612.67;127787;1091;104375;-72
2020/12/27 07:16:49;;;;;;;125.30;46.80;;;;;;;2.10;85.48;101624.91;127805;1091;104420;-71
2020/12/27 07:19:19;;;;;;;90.73;45.03;;;;;;;2.18;84.94;101616.87;127821;1092;104411;-71
2020/12/27 07:21:48;;;;;;;87.10;39.77;;;;;;;2.25;84.65;101622.72;127801;1091;104446;-71
2020/12/27 07:24:27;;;;;;;100.10;41.63;;;;;;;2.25;84.92;101627.01;127753;1092;104417;-72
2020/12/27 07:26:56;;;;;;;93.00;42.10;;;;;;;2.26;84.75;101621.96;127761;1092;104856;-71
2020/12/27 07:29:25;;;;;;;114.83;41.70;;;;;;;2.25;84.95;101620.13;127192;1095;104564;-72
2020/12/27 07:31:56;;;;;;;87.30;39.00;;;;;;;2.23;84.64;101624.28;127202;1095;104445;-71
2020/12/27 07:34:27;;;;;;;110.03;43.07;;;;;;;2.22;84.29;101626.73;127243;1094;104560;-73
2020/12/27 07:37:00;;;;;;;91.20;40.67;;;;;;;2.24;84.30;101618.30;127230;1094;104564;-72
2020/12/27 07:39:53;;;;;;;113.07;45.03;;;;;;;2.20;84.38;101617.91;127225;1095;104569;-73
2020/12/27 07:42:28;;;;;;;116.95;42.30;;;;;;;2.18;84.73;101622.05;127235;1095;104455;-72
2020/12/27 07:45:01;;;;;;;99.97;45.30;;;;;;;2.24;84.60;101623.48;127297;1095;104548;-72
2020/12/27 07:47:38;;;;;;;99.87;46.10;;;;;;;2.27;84.58;101626.34;127252;1095;104439;-73
2020/12/27 07:50:12;;;;;;;89.53;39.07;;;;;;;2.31;84.39;101624.95;127281;1094;104657;-71
2020/12/27 07:52:45;;;;;;;109.83;46.43;;;;;;;2.33;84.84;101636.34;127242;1095;104413;-73
2020/12/27 07:55:24;;;;;;;95.70;42.23;;;;;;;2.36;84.26;101634.02;127650;1092;104640;-72
2020/12/27 07:57:58;;;;;;;108.60;41.10;;;;;;;2.37;84.21;101643.62;127788;1092;104427;-72
2020/12/27 08:00:30;;;;;;;130.73;45.40;;;;;;;2.43;84.53;101644.15;127814;1091;105349;-72
2020/12/27 08:03:03;;;;;;;104.17;39.60;;;;;;;2.42;84.66;101642.32;127809;1092;104532;-71
2020/12/27 08:05:33;;;;;;;106.60;41.28;;;;;;;2.47;84.04;101641.02;127592;1091;104417;-73
2020/12/27 08:08:06;;;;;;;89.73;37.40;;;;;;;2.48;83.85;101650.63;127615;1092;104936;-74
2020/12/27 08:10:36;;;;;;;90.15;35.45;;;;;;;2.55;84.52;101656.34;127696;1091;104551;-73
2020/12/27 08:13:07;;;;;;;79.87;34.57;;;;;;;2.57;84.33;101652.19;127687;1091;104478;-72
2020/12/27 08:15:39;;;;;;;75.53;30.97;;;;;;;2.60;83.61;101657.63;127782;1091;104541;-72
2020/12/27 08:18:10;;;;;;;88.97;30.47;;;;;;;2.56;83.79;101659.06;127720;1092;104532;-72
2020/12/27 08:20:46;;;;;;;83.30;34.27;;;;;;;2.59;84.13;101651.55;127727;1092;104408;-72
2020/12/27 08:23:17;;;;;;;79.67;28.90;;;;;;;2.65;83.85;101649.48;127795;1092;104436;-71
2020/12/27 08:25:55;;;;;;;68.63;28.10;;;;;;;2.67;83.11;101647.92;127792;1092;104468;-71
2020/12/27 08:28:24;;;;;;;87.20;36.73;;;;;;;2.74;83.34;101649.34;127737;1091;104472;-71
2020/12/27 08:30:53;;;;;;;93.33;41.27;;;;;;;2.79;83.90;101645.48;127753;1091;104526;-71
2020/12/27 08:33:22;;;;;;;95.63;40.73;;;;;;;2.89;83.30;101641.98;127759;1091;104413;-73
2020/12/27 08:35:52;;;;;;;77.07;36.97;;;;;;;2.98;83.27;101637.58;127770;1091;104458;-71
2020/12/27 08:38:33;;;;;;;75.57;35.37;;;;;;;3.04;83.64;101632.01;127779;1091;102907;-71
2020/12/27 08:41:18;;;;;;;89.33;38.33;;;;;;;3.07;83.44;101627.08;127789;1091;104643;-71
2020/12/27 08:43:58;;;;;;;;;;;;;;;3.10;83.01;101616.97;127809;1091;104411;-71
2020/12/27 08:46:31;;;;;;;132.97;46.93;;;;;;;3.05;82.99;101628.61;127828;1091;104407;-71
2020/12/27 08:49:09;;;;;;;107.33;45.43;;;;;;;2.99;82.73;101612.55;127800;1092;104426;-71
2020/12/27 08:51:43;;;;;;;105.47;45.07;;;;;;;2.97;82.16;101611.52;127844;1091;105019;-71
2020/12/27 08:54:12;;;;;;;;;;;;;;;2.94;82.61;101609.56;127859;1092;104407;-71
2020/12/27 08:56:42;;;;;;;146.20;55.40;;;;;;;2.99;82.49;101599.58;127809;1092;104432;-71
2020/12/27 09:20:00;;;;;;;73.73;32.37;;;;;;;3.27;82.32;101574.23;127583;1092;104474;-71
2020/12/27 09:23:00;;;;;;;68.77;28.07;;;;;;;3.37;83.21;101571.63;127405;1092;104882;-70
2020/12/27 09:26:27;;;;;;;77.05;27.85;;;;;;;3.44;82.90;101566.94;127790;1092;103536;-70
2020/12/27 09:29:27;;;;;;;62.80;23.63;;;;;;;3.48;82.34;101551.74;127209;1093;104423;-72
2020/12/27 09:35:03;;;;;;;44.97;19.20;;;;;;;3.65;81.87;101560.89;127506;1092;104535;-73
2020/12/27 09:37:33;;;;;;;55.50;24.17;;;;;;;3.64;82.54;101550.38;127787;1092;103216;-71
2020/12/27 09:40:04;;;;;;;49.20;20.80;;;;;;;3.63;82.30;101551.16;127733;1092;105047;-72
2020/12/27 09:42:33;;;;;;;61.47;25.07;;;;;;;3.60;82.25;101549.24;127658;1092;104439;-72
2020/12/27 09:47:59;;;;;;;54.50;21.17;;;;;;;3.67;81.77;101535.05;127068;1098;104407;-73
2020/12/27 09:50:38;;;;;;;74.87;27.33;;;;;;;3.75;82.54;101529.67;127305;1095;104401;-73
2020/12/27 09:53:07;;;;;;;52.00;21.00;;;;;;;3.83;81.83;101529.38;127291;1095;104586;-73
2020/12/27 09:55:36;;;;;;;60.43;23.83;;;;;;;3.85;81.40;101527.80;127186;1094;104427;-71
2020/12/27 09:58:05;;;;;;;53.07;21.20;;;;;;;3.89;81.55;101522.08;127317;1095;104468;-70
2020/12/27 10:00:34;;;;;;;42.77;21.83;;;;;;;3.90;81.90;101519.60;127218;1094;104535;-72
2020/12/27 10:03:03;;;;;;;69.40;27.70;;;;;;;3.96;82.01;101514.00;127295;1095;104404;-70
2020/12/27 10:05:32;;;;;;;65.53;24.50;;;;;;;3.98;81.43;101517.61;127326;1095;104411;-71
2020/12/27 10:08:01;;;;;;;56.30;21.90;;;;;;;4.00;81.23;101512.53;127266;1094;104494;-71
2020/12/27 10:10:30;;;;;;;69.10;27.40;;;;;;;4.01;81.47;101514.36;127304;1095;104407;-71
2020/12/27 10:12:59;;;;;;;68.03;27.70;;;;;;;4.00;81.07;101507.34;127280;1095;104401;-71
2020/12/27 10:15:28;;;;;;;64.33;25.90;;;;;;;4.06;81.55;101511.31;127322;1094;104478;-71
2020/12/27 10:17:59;;;;;;;77.60;26.75;;;;;;;4.12;81.35;101505.70;127302;1095;104404;-71
2020/12/27 10:20:28;;;;;;;62.10;24.83;;;;;;;4.16;81.19;101486.98;127299;1095;104515;-71
2020/12/27 10:22:57;;;;;;;49.47;20.97;;;;;;;4.19;81.04;101486.29;127304;1094;104417;-71
2020/12/27 10:25:26;;;;;;;41.60;15.67;;;;;;;4.25;81.19;101489.36;127259;1095;104545;-71
2020/12/27 10:27:54;;;;;;;58.43;23.33;;;;;;;4.22;81.04;101474.43;127310;1095;104401;-71
2020/12/27 10:30:23;;;;;;;50.97;18.37;;;;;;;4.27;81.07;101479.98;127298;1095;104477;-71
2020/12/27 10:32:52;;;;;;;51.20;21.40;;;;;;;4.30;81.15;101475.95;127267;1095;104512;-70
2020/12/27 10:35:21;;;;;;;36.87;13.83;;;;;;;4.36;81.00;101478.09;127250;1095;104868;-71
2020/12/27 10:41:53;;;;;;;52.27;18.47;;;;;;;4.24;81.04;101469.36;127229;1094;104413;-72
2020/12/27 10:44:52;;;;;;;48.20;18.27;;;;;;;4.23;80.27;101467.56;127256;1095;104574;-72
2020/12/27 10:47:39;;;;;;;;;;;;;;;4.26;80.93;101460.00;127333;1095;104474;-71
2020/12/27 10:50:08;;;;;;;46.50;19.50;;;;;;;4.26;81.02;101458.30;127326;1095;104407;-74
2020/12/27 10:52:37;;;;;;;48.50;19.00;;;;;;;4.26;81.04;101453.11;127284;1095;103537;-72
2020/12/27 10:55:06;;;;;;;58.57;21.83;;;;;;;4.24;80.90;101448.56;127281;1095;104429;-71
2020/12/27 10:57:35;;;;;;;51.80;21.07;;;;;;;4.25;80.96;101451.28;127282;1095;104585;-73
2020/12/27 11:00:05;;;;;;;43.20;18.20;;;;;;;4.32;81.08;101444.88;127274;1095;104405;-71
2020/12/27 11:02:33;;;;;;;56.10;22.57;;;;;;;4.36;81.34;101438.22;127298;1095;104427;-71
2020/12/27 11:05:02;;;;;;;56.07;22.47;;;;;;;4.34;80.69;101445.00;127310;1095;104404;-73
2020/12/27 11:07:33;;;;;;;65.13;25.23;;;;;;;4.37;81.04;101440.93;127285;1094;104407;-72
2020/12/27 11:10:03;;;;;;;46.90;20.60;;;;;;;4.38;80.83;101439.22;127251;1095;104868;-70
2020/12/27 11:12:32;;;;;;;53.10;23.03;;;;;;;4.36;80.99;101441.70;127275;1095;104506;-71
2020/12/27 11:15:01;;;;;;;57.43;23.70;;;;;;;4.37;80.58;101425.34;127288;1095;104421;-71
2020/12/27 11:17:29;;;;;;;42.53;20.87;;;;;;;4.40;80.72;101411.69;127334;1094;104536;-71
2020/12/27 11:19:58;;;;;;;46.77;18.83;;;;;;;4.39;80.79;101407.27;127325;1092;104451;-70
2020/12/27 11:22:29;;;;;;;38.10;17.33;;;;;;;4.36;80.57;101412.23;127328;1093;104576;-71
2020/12/27 11:24:58;;;;;;;42.63;16.63;;;;;;;4.26;80.47;101403.73;127328;1092;104414;-71
2020/12/27 11:27:27;;;;;;;37.10;17.33;;;;;;;4.15;80.68;101402.03;127414;1094;104534;-70
2020/12/27 11:29:57;;;;;;;42.50;16.63;;;;;;;4.07;79.97;101406.64;127363;1094;104529;-71
2020/12/27 11:32:26;;;;;;;41.80;17.97;;;;;;;4.00;79.94;101404.35;127382;1094;104409;-70
2020/12/27 11:34:55;;;;;;;31.17;15.47;;;;;;;3.92;79.83;101415.85;127386;1094;104499;-71
2020/12/27 11:37:24;;;;;;;48.40;18.95;;;;;;;3.81;80.38;101425.41;127237;1095;104554;-72
2020/12/27 11:39:53;;;;;;;41.57;14.53;;;;;;;3.75;80.73;101428.42;127268;1095;104535;-71
2020/12/27 11:42:25;;;;;;;35.73;17.20;;;;;;;3.68;80.13;101420.97;127372;1094;104404;-71
2020/12/27 11:44:54;;;;;;;33.07;17.10;;;;;;;3.64;80.75;101420.60;127268;1094;104541;-72
2020/12/27 11:47:23;;;;;;;51.03;17.43;;;;;;;3.62;80.39;101417.89;127368;1093;104481;-71
2020/12/27 11:49:53;;;;;;;58.97;21.07;;;;;;;3.64;80.74;101416.30;127321;1092;104474;-71
2020/12/27 11:52:24;;;;;;;46.25;19.80;;;;;;;3.68;80.77;101413.17;127387;1092;104538;-71
2020/12/27 11:54:53;;;;;;;47.77;19.20;;;;;;;3.73;80.92;101405.75;127189;1095;104856;-75
2020/12/27 11:57:22;;;;;;;45.30;19.20;;;;;;;3.78;80.93;101399.21;127163;1094;104432;-73
2020/12/27 11:59:51;;;;;;;46.00;19.27;;;;;;;3.78;80.78;101399.21;127268;1095;104532;-72
2020/12/27 12:02:20;;;;;;;38.77;17.87;;;;;;;3.79;80.68;101388.05;127360;1093;104407;-72
2020/12/27 12:04:49;;;;;;;38.93;16.33;;;;;;;3.78;79.78;101374.14;127379;1094;104401;-72